Latest Coastal Weather Observations for Evans Head

IDN60701

Issued at 9:31 am EDT Thursday 24 October 2019 (issued every 10 minutes, with the page automatically refreshed every 10 minutes)

About coastal observations | Map of coastal stations | Coastal observations for NSW | Marine services | Other Formats
Station Details ID: 058212 Name: EVANS HEAD RAAF BOMBING RANGE AWS Lat: -29.18 Lon: 153.40 Height: 62.5 m
Data from the previous 72 hours. | See also: Recent months at Evans Head
Date/Time
EDT
Wind Sea
Height
m
Swell Vis
km
Cloud Weather Temp
°C
Press
hPa
Rain since
9am
mm
Dir  Spd
kts
Gust
kts
Height
m
Period
s
Dir
24/09:30am N 6 9 - - - - - - - 24.4 1021.3 0.0
24/09:00am NNW 7 11 - - - - - - - 22.5 1021.3 0.0
24/08:30am NNW 6 9 - - - - - - - 21.0 1021.2 0.0
24/08:00am NNW 6 9 - - - - - - - 19.1 1021.1 0.0
24/07:30am NNW 7 10 - - - - - - - 17.3 1020.7 0.0
24/07:00am NNW 7 10 - - - - - - - 15.4 1020.5 0.0
24/06:30am NNW 6 8 - - - - - - - 14.1 1020.2 0.0
24/06:00am NNW 6 8 - - - - - - - 13.0 1020.0 0.0
24/05:30am NNW 7 9 - - - - - - - 13.0 1019.9 0.0
24/05:00am NNW 7 9 - - - - - - - 13.1 1019.8 0.0
24/04:30am NNW 6 6 - - - - - - - 13.4 1019.9 0.0
24/04:00am NNW 6 8 - - - - - - - 13.3 1019.9 0.0
24/03:30am NNW 5 7 - - - - - - - 13.5 1020.2 0.0
24/03:00am NNW 5 6 - - - - - - - 13.4 1020.5 0.0
24/02:30am N 6 8 - - - - - - - 13.8 1020.7 0.0
24/02:00am NNW 6 7 - - - - - - - 14.1 1021.0 0.0
24/01:30am NNW 6 7 - - - - - - - 14.6 1021.4 0.0
24/01:00am N 6 8 - - - - - - - 15.0 1021.8 0.0
24/12:30am N 7 9 - - - - - - - 15.3 1022.0 0.0
24/12:00am N 7 10 - - - - - - - 16.0 1022.1 0.0
 
Date/Time
EDT
Wind Sea
Height
m
Swell Vis
km
Cloud Weather Temp
°C
Press
hPa
Rain since
9am
mm
Dir  Spd
kts
Gust
kts
Height
m
Period
s
Dir
23/11:30pm N 9 13 - - - - - - - 16.4 1022.2 0.0
23/11:00pm N 9 13 - - - - - - - 16.7 1022.2 0.0
23/10:30pm N 10 15 - - - - - - - 16.8 1022.3 0.0
23/10:00pm N 9 11 - - - - - - - 17.0 1022.3 0.0
23/09:30pm N 9 15 - - - - - - - 17.6 1022.3 0.0
23/09:00pm N 9 14 - - - - - - - 18.0 1022.2 0.0
23/08:30pm N 11 16 - - - - - - - 18.3 1021.8 0.0
23/08:00pm N 10 16 - - - - - - - 18.4 1021.7 0.0
23/07:30pm N 10 15 - - - - - - - 18.4 1021.6 0.0
23/07:00pm N 11 15 - - - - - - - 18.9 1021.5 0.0
23/06:30pm N 10 16 - - - - - - - 19.8 1021.2 0.0
23/06:00pm N 11 17 - - - - - - - 20.6 1021.0 0.0
23/05:30pm N 9 16 - - - - - - - 21.7 1021.1 0.0
23/05:00pm NNE 9 17 - - - - - - - 22.4 1021.0 0.0
23/04:30pm NNE 10 16 - - - - - - - 22.5 1021.1 0.0
23/04:00pm NE 12 17 - - - - - - - 22.4 1021.2 0.0
23/03:30pm NE 13 18 - - - - - - - 22.8 1021.5 0.0
23/03:00pm NE 12 17 - - - - - - - 23.7 1021.6 0.0
23/02:30pm NE 11 15 - - - - - - - 24.0 1022.1 0.0
23/02:00pm NE 11 17 - - - - - - - 24.2 1022.4 0.0
23/01:30pm ENE 11 16 - - - - - - - 23.4 1022.9 0.0
23/01:00pm ENE 11 16 - - - - - - - 23.5 1023.2 0.0
23/12:30pm ENE 9 15 - - - - - - - 24.5 1023.5 0.0
23/12:00pm ENE 9 14 - - - - - - - 24.6 1023.9 0.0
23/11:30am E 9 11 - - - - - - - 23.7 1024.2 0.0
23/11:00am ESE 8 10 - - - - - - - 23.4 1024.6 0.0
23/10:30am ESE 6 10 - - - - - - - 23.0 1024.9 0.0
23/10:00am W 2 5 - - - - - - - 21.6 1024.8 0.0
23/09:30am WNW 5 7 - - - - - - - 21.6 1024.8 0.0
23/09:00am W 4 6 - - - - - - - 21.4 1024.7 0.0
23/08:30am W 4 5 - - - - - - - 19.4 1024.6 0.0
23/08:00am WNW 3 7 - - - - - - - 18.0 1024.4 0.0
23/07:30am NW 4 6 - - - - - - - 15.2 1024.2 0.0
23/07:00am WNW 4 6 - - - - - - - 15.2 1023.8 0.0
23/06:30am WNW 5 6 - - - - - - - 15.5 1023.5 0.0
23/06:00am W 6 7 - - - - - - - 15.6 1023.3 0.0
23/05:30am W 6 7 - - - - - - - 15.6 1023.2 0.0
23/05:00am WNW 6 7 - - - - - - - 15.5 1022.8 0.0
23/04:30am W 6 6 - - - - - - - 16.0 1022.6 0.0
23/04:00am W 6 7 - - - - - - - 16.2 1022.7 0.0
23/03:30am W 7 7 - - - - - - - 16.4 1022.9 0.0
23/03:00am W 6 7 - - - - - - - 16.6 1023.1 0.0
23/02:30am W 6 7 - - - - - - - 16.7 1023.3 0.0
23/02:00am W 6 7 - - - - - - - 16.7 1023.3 0.0
23/01:30am W 6 6 - - - - - - - 16.8 1023.5 0.0
23/01:00am W 6 6 - - - - - - - 16.7 1024.0 0.0
23/12:30am W 6 6 - - - - - - - 17.0 1024.4 0.0
23/12:00am W 5 6 - - - - - - - 17.1 1024.7 0.0
 
Date/Time
EDT
Wind Sea
Height
m
Swell Vis
km
Cloud Weather Temp
°C
Press
hPa
Rain since
9am
mm
Dir  Spd
kts
Gust
kts
Height
m
Period
s
Dir
22/11:30pm WNW 4 5 - - - - - - - 17.0 1024.7 0.0
22/11:00pm CALM 0 0 - - - - - - - 17.2 1024.8 0.0
22/10:30pm NNW 3 3 - - - - - - - 17.1 1024.9 0.0
22/10:00pm N 3 4 - - - - - - - 17.0 1024.9 0.0
22/09:30pm N 4 5 - - - - - - - 17.0 1024.8 0.0
22/09:00pm N 3 4 - - - - - - - 17.2 1024.6 0.0
22/08:30pm NNE 4 5 - - - - - - - 17.2 1024.4 0.0
22/08:00pm NNE 4 5 - - - - - - - 17.3 1024.2 0.0
22/07:30pm NNE 5 7 - - - - - - - 18.0 1024.0 0.0
22/07:00pm NNE 4 6 - - - - - - - 18.3 1023.6 0.0
22/06:30pm NE 5 8 - - - - - - - 19.2 1023.1 0.0
22/06:00pm ENE 7 10 - - - - - - - 20.2 1022.7 0.0
22/05:30pm E 8 11 - - - - - - - 20.8 1022.5 0.0
22/05:00pm ESE 10 13 - - - - - - - 20.7 1022.5 0.0
22/04:30pm ESE 11 13 - - - - - - - 21.4 1022.5 0.0
22/04:00pm E 10 14 - - - - - - - 21.3 1022.6 0.0
22/03:30pm E 9 15 - - - - - - - 22.0 1022.7 0.0
22/03:00pm ESE 11 14 - - - - - - - 22.0 1023.0 0.0
22/02:30pm SE 12 15 - - - - - - - 22.4 1023.3 0.0
22/02:00pm SE 11 15 - - - - - - - 23.7 1023.6 0.0
22/01:30pm SE 11 14 - - - - - - - 23.1 1023.9 0.0
22/01:00pm SSE 10 15 - - - - - - - 23.2 1024.1 0.0
22/12:30pm SSE 9 14 - - - - - - - 23.0 1024.3 0.0
22/12:00pm SSE 9 12 - - - - - - - 23.3 1024.6 0.0
22/11:30am SSE 9 13 - - - - - - - 23.4 1025.0 0.0
22/11:00am S 9 14 - - - - - - - 22.7 1025.4 0.0
22/10:30am S 10 13 - - - - - - - 20.9 1025.6 0.0
22/10:00am S 11 16 - - - - - - - 20.9 1025.6 0.0
22/09:30am S 10 14 - - - - - - - 19.8 1025.5 0.0
22/09:00am SSW 9 12 - - - - - - - 21.0 1025.2 0.2
22/08:30am SSW 7 9 - - - - - - - 19.6 1024.9 0.2
22/08:00am SW 6 10 - - - - - - - 17.7 1024.8 0.2
22/07:30am SW 7 9 - - - - - - - 16.8 1024.7 0.2
22/07:00am SW 6 9 - - - - - - - 16.1 1024.5 0.2
22/06:30am WSW 4 6 - - - - - - - 15.0 1024.4 0.2
22/06:00am WSW 6 7 - - - - - - - 14.7 1024.1 0.2
22/05:30am SW 5 7 - - - - - - - 14.6 1024.0 0.2
22/05:00am W 7 9 - - - - - - - 15.0 1023.8 0.2
22/04:30am W 7 9 - - - - - - - 15.1 1023.6 0.2
22/04:00am W 7 9 - - - - - - - 14.8 1023.7 0.2
22/03:30am WSW 3 5 - - - - - - - 15.1 1024.0 0.2
22/03:00am WSW 7 9 - - - - - - - 15.1 1023.9 0.0
22/02:30am WSW 8 10 - - - - - - - 14.9 1024.1 0.0
22/02:00am WSW 8 9 - - - - - - - 14.9 1024.3 0.0
22/01:30am WSW 8 9 - - - - - - - 15.2 1024.6 0.0
22/01:00am WSW 8 9 - - - - - - - 15.7 1025.0 0.0
22/12:30am WSW 7 9 - - - - - - - 16.2 1025.3 0.0
22/12:00am WSW 7 9 - - - - - - - 16.2 1025.4 0.0
 
Date/Time
EDT
Wind Sea
Height
m
Swell Vis
km
Cloud Weather Temp
°C
Press
hPa
Rain since
9am
mm
Dir  Spd
kts
Gust
kts
Height
m
Period
s
Dir
21/11:30pm WSW 7 9 - - - - - - - 16.3 1025.5 0.0
21/11:00pm SW 4 6 - - - - - - - 16.4 1025.5 0.0
21/10:30pm SE 6 7 - - - - - - - 16.9 1025.5 0.0
21/10:00pm SE 8 10 - - - - - - - 17.7 1025.5 0.0
21/09:30pm SE 9 11 - - - - - - - 17.8 1025.6 0.0
21/09:00pm SE 9 13 - - - - - - - 17.9 1025.4 0.0
21/08:30pm SE 10 14 - - - - - - - 18.0 1025.2 0.0
21/08:00pm SE 10 14 - - - - - - - 18.0 1025.1 0.0
21/07:30pm SE 9 13 - - - - - - - 17.9 1025.0 0.0
21/07:00pm SE 9 14 - - - - - - - 18.2 1024.7 0.0
21/06:30pm SE 11 15 - - - - - - - 18.8 1024.4 0.0
21/06:00pm SE 11 15 - - - - - - - 19.5 1024.2 0.0
21/05:30pm SE 12 15 - - - - - - - 20.0 1024.0 0.0
21/05:00pm SE 12 16 - - - - - - - 20.6 1023.9 0.0
21/04:30pm SE 13 17 - - - - - - - 21.2 1023.9 0.0
21/04:00pm SSE 14 17 - - - - - - - 21.5 1023.8 0.0
21/03:30pm SSE 14 17 - - - - - - - 22.3 1023.8 0.0
21/03:00pm SSE 13 18 - - - - - - - 22.8 1024.1 0.0
21/02:30pm SSE 14 19 - - - - - - - 23.0 1024.4 0.0
21/02:00pm SSE 14 19 - - - - - - - 22.6 1024.7 0.0
21/01:30pm SSE 14 18 - - - - - - - 23.0 1024.8 0.0
21/01:00pm S 13 19 - - - - - - - 22.9 1025.0 0.0
21/12:30pm SSE 13 18 - - - - - - - 23.3 1025.2 0.0
21/12:00pm S 12 16 - - - - - - - 22.9 1025.4 0.0
21/11:30am S 14 18 - - - - - - - 23.1 1025.6 0.0
21/11:00am S 13 19 - - - - - - - 22.3 1025.8 0.0
21/10:30am SSE 14 17 - - - - - - - 22.8 1025.9 0.0
21/10:00am SSE 11 16 - - - - - - - 22.5 1026.0 0.0

Other formats

Comma delimited format used in spreadsheet applications
http://www.bom.gov.au/fwo/IDN60701/IDN60701.94598.axf

JavaScript Object Notation format (JSON) in row-major order
http://www.bom.gov.au/fwo/IDN60701/IDN60701.94598.json

Data quality

Most of these data are generated automatically and are frequently updated. Quality checks on data are not normally performed. It is possible for incorrect values to appear. Refer to information at About Latest Weather Observations and please check the disclaimer before using these data.